createdAt,value
2023-01-23T00:00:40.644Z,3.45
2023-01-23T00:03:07.829Z,6.35
2023-01-23T00:05:34.960Z,5.03
2023-01-23T00:08:02.121Z,4.93
2023-01-23T00:10:29.252Z,6.30
2023-01-23T00:12:57.665Z,5.63
2023-01-23T00:15:24.878Z,3.55
2023-01-23T00:17:52.226Z,4.72
2023-01-23T00:20:20.312Z,4.40
2023-01-23T00:22:47.737Z,5.57
2023-01-23T00:25:14.889Z,6.22
2023-01-23T00:27:42.020Z,6.43
2023-01-23T00:30:09.563Z,6.45
2023-01-23T00:32:36.742Z,6.50
2023-01-23T00:35:04.058Z,6.63
2023-01-23T00:37:31.302Z,5.20
2023-01-23T00:39:58.423Z,6.32
2023-01-23T00:42:25.615Z,6.68
2023-01-23T00:44:52.799Z,6.50
2023-01-23T00:47:20.005Z,6.35
2023-01-23T00:49:47.213Z,6.07
2023-01-23T00:52:14.352Z,6.50
2023-01-23T00:54:41.517Z,6.10
2023-01-23T00:57:08.693Z,6.68
2023-01-23T00:59:35.830Z,8.75
2023-01-23T01:02:03.088Z,7.45
2023-01-23T01:04:30.283Z,6.65
2023-01-23T01:06:57.413Z,7.28
2023-01-23T01:09:24.879Z,6.93
2023-01-23T01:11:52.295Z,8.00
2023-01-23T01:14:19.556Z,9.55
2023-01-23T01:16:46.725Z,9.77
2023-01-23T01:19:14.494Z,7.25
2023-01-23T01:21:42.291Z,7.95
2023-01-23T01:24:09.751Z,8.60
2023-01-23T01:26:37.059Z,7.43
2023-01-23T01:29:04.255Z,9.07
2023-01-23T01:31:31.506Z,8.73
2023-01-23T01:33:58.700Z,9.43
2023-01-23T01:36:27.065Z,11.23
2023-01-23T01:38:54.291Z,9.33
2023-01-23T01:41:21.471Z,9.43
2023-01-23T01:43:48.721Z,9.85
2023-01-23T01:46:18.713Z,10.45
2023-01-23T01:48:50.807Z,8.82
2023-01-23T01:51:19.619Z,8.98
2023-01-23T01:53:47.359Z,10.57
2023-01-23T01:56:14.551Z,11.80
2023-01-23T01:58:41.919Z,10.50
2023-01-23T02:01:09.230Z,10.07
2023-01-23T02:03:36.427Z,12.95
2023-01-23T02:06:03.686Z,12.13
2023-01-23T02:08:32.785Z,10.75
2023-01-23T02:11:03.485Z,10.85
2023-01-23T02:13:36.802Z,11.83
2023-01-23T02:16:08.036Z,11.68
2023-01-23T02:18:35.701Z,11.95
2023-01-23T02:21:04.438Z,12.77
2023-01-23T02:23:44.107Z,12.23
2023-01-23T02:26:17.974Z,12.55
2023-01-23T02:28:46.216Z,14.75
2023-01-23T02:31:13.601Z,13.20
2023-01-23T02:33:40.825Z,12.65
2023-01-23T02:36:09.055Z,11.73
2023-01-23T02:38:37.646Z,12.75
2023-01-23T02:41:05.049Z,18.08
2023-01-23T02:43:35.135Z,13.40
2023-01-23T02:46:03.223Z,17.83
2023-01-23T02:48:30.459Z,17.08
2023-01-23T02:50:57.703Z,15.45
2023-01-23T02:53:25.719Z,15.05
2023-01-23T02:55:52.928Z,13.48
2023-01-23T02:58:38.662Z,15.23
2023-01-23T03:01:05.992Z,16.48
2023-01-23T03:03:33.233Z,13.55
2023-01-23T03:06:03.428Z,14.93
2023-01-23T03:08:34.176Z,16.73
2023-01-23T03:11:01.697Z,16.02
2023-01-23T03:13:29.670Z,15.82
2023-01-23T03:16:00.027Z,17.88
2023-01-23T03:18:31.230Z,15.38
2023-01-23T03:21:02.122Z,21.13
2023-01-23T03:23:29.286Z,19.60
2023-01-23T03:25:58.613Z,15.85
2023-01-23T03:28:44.998Z,18.50
2023-01-23T03:31:12.933Z,17.10
2023-01-23T03:33:43.254Z,21.47
2023-01-23T03:36:13.512Z,22.17
2023-01-23T03:39:00.601Z,20.58
2023-01-23T03:41:28.122Z,25.57
2023-01-23T03:43:55.274Z,19.35
2023-01-23T03:46:22.403Z,21.30
2023-01-23T03:48:49.588Z,22.65
2023-01-23T03:51:16.772Z,22.30
2023-01-23T03:53:44.072Z,19.83
2023-01-23T03:56:11.255Z,19.20
2023-01-23T03:58:38.406Z,23.67
2023-01-23T04:01:09.586Z,23.25
2023-01-23T04:03:36.868Z,20.38
2023-01-23T04:06:04.069Z,24.73
2023-01-23T04:08:31.307Z,21.10
2023-01-23T04:11:05.302Z,24.92
2023-01-23T04:13:32.557Z,21.75
2023-01-23T04:16:00.095Z,22.00
2023-01-23T04:18:27.320Z,22.88
2023-01-23T04:20:54.725Z,26.02
2023-01-23T04:23:22.074Z,25.85
2023-01-23T04:25:49.240Z,27.03
2023-01-23T04:28:16.407Z,28.08
2023-01-23T04:30:44.356Z,24.27
2023-01-23T04:33:11.688Z,25.90
2023-01-23T04:35:38.856Z,32.35
2023-01-23T04:38:06.001Z,25.40
2023-01-23T04:40:33.222Z,23.40
2023-01-23T04:43:00.519Z,28.33
2023-01-23T04:45:27.743Z,28.33
2023-01-23T04:47:54.967Z,27.77
2023-01-23T04:50:22.271Z,28.20
2023-01-23T04:52:49.601Z,32.67
2023-01-23T04:55:16.773Z,32.00
2023-01-23T04:57:43.888Z,29.00
2023-01-23T05:00:11.382Z,33.75
2023-01-23T05:02:38.615Z,27.98
2023-01-23T05:05:06.883Z,30.83
2023-01-23T05:07:34.006Z,32.33
2023-01-23T05:10:01.211Z,34.45
2023-01-23T05:12:28.557Z,37.63
2023-01-23T05:14:55.686Z,32.33
2023-01-23T05:17:22.801Z,33.17
2023-01-23T05:19:49.974Z,33.15
2023-01-23T05:22:18.036Z,37.28
2023-01-23T05:24:45.424Z,36.75
2023-01-23T05:27:12.968Z,33.85
2023-01-23T05:29:40.159Z,39.92
2023-01-23T05:32:07.384Z,35.05
2023-01-23T05:34:34.547Z,37.10
2023-01-23T05:37:01.851Z,40.92
2023-01-23T05:39:28.996Z,46.13
2023-01-23T05:41:56.210Z,43.90
2023-01-23T05:44:23.420Z,40.60
2023-01-23T05:46:50.552Z,45.15
2023-01-23T05:49:17.760Z,46.80
2023-01-23T05:51:44.892Z,41.45
2023-01-23T05:54:13.207Z,51.15
2023-01-23T05:56:40.501Z,43.35
2023-01-23T05:59:07.661Z,44.65
2023-01-23T06:01:35.658Z,47.90
2023-01-23T06:04:02.783Z,53.00
2023-01-23T06:06:29.971Z,46.47
2023-01-23T06:08:59.099Z,53.70
2023-01-23T06:11:26.261Z,52.05
2023-01-23T06:13:53.415Z,47.88
2023-01-23T06:16:20.671Z,47.28
2023-01-23T06:18:47.916Z,47.38
2023-01-23T06:21:17.791Z,48.35
2023-01-23T06:23:47.937Z,44.57
2023-01-23T06:26:15.384Z,48.50
2023-01-23T06:28:42.550Z,44.00
2023-01-23T06:31:10.499Z,45.57
2023-01-23T06:33:38.996Z,53.17
2023-01-23T06:36:06.683Z,48.83
2023-01-23T06:38:33.937Z,51.53
2023-01-23T06:41:01.124Z,49.42
2023-01-23T06:43:28.401Z,47.00
2023-01-23T06:45:55.637Z,45.63
2023-01-23T06:48:22.798Z,39.58
2023-01-23T06:50:50.014Z,42.80
2023-01-23T06:53:18.274Z,51.00
2023-01-23T06:55:45.553Z,43.40
2023-01-23T06:58:12.729Z,47.95
2023-01-23T07:00:40.071Z,41.92
2023-01-23T07:03:07.257Z,35.55
2023-01-23T07:05:37.212Z,38.35
2023-01-23T07:08:05.088Z,33.67
2023-01-23T07:10:32.396Z,39.38
2023-01-23T07:12:59.669Z,36.40
2023-01-23T07:15:26.824Z,37.13
2023-01-23T07:17:53.970Z,35.22
2023-01-23T07:20:23.747Z,41.35
2023-01-23T07:22:51.445Z,43.58
2023-01-23T07:25:22.325Z,33.53
2023-01-23T07:27:49.567Z,33.93
2023-01-23T07:30:17.098Z,39.20
2023-01-23T07:32:44.412Z,33.85
2023-01-23T07:35:11.602Z,37.95
2023-01-23T07:57:34.049Z,29.80
2023-01-23T08:00:01.243Z,32.80
2023-01-23T08:02:28.528Z,35.45
2023-01-23T08:04:55.743Z,38.58
2023-01-23T08:07:23.956Z,37.63
2023-01-23T08:09:51.179Z,31.15
2023-01-23T08:12:18.414Z,31.10
2023-01-23T08:14:45.696Z,31.50
2023-01-23T08:17:12.977Z,34.35
2023-01-23T08:19:40.207Z,32.63
2023-01-23T08:22:07.415Z,31.30
2023-01-23T08:24:34.631Z,32.50
2023-01-23T08:27:01.942Z,33.33
2023-01-23T08:29:29.346Z,31.25
2023-01-23T08:31:56.630Z,30.17
2023-01-23T08:34:24.294Z,26.02
2023-01-23T08:36:51.475Z,28.38
2023-01-23T08:39:19.994Z,33.83
2023-01-23T08:41:47.285Z,29.23
2023-01-23T08:44:14.482Z,30.38
2023-01-23T08:46:43.056Z,29.10
2023-01-23T08:49:11.371Z,28.27
2023-01-23T08:51:38.686Z,29.35
2023-01-23T08:54:06.175Z,33.42
2023-01-23T08:56:33.393Z,31.17
2023-01-23T08:59:00.596Z,29.38
2023-01-23T09:01:28.004Z,32.72
2023-01-23T09:03:55.288Z,29.20
2023-01-23T09:06:22.968Z,30.48
2023-01-23T09:08:50.177Z,29.80
2023-01-23T09:11:17.527Z,30.67
2023-01-23T09:13:45.845Z,26.00
2023-01-23T09:16:13.124Z,32.53
2023-01-23T09:18:40.405Z,27.90
2023-01-23T09:21:11.946Z,28.80
2023-01-23T09:23:39.210Z,30.98
2023-01-23T09:26:06.881Z,28.20
2023-01-23T09:28:34.062Z,33.78
2023-01-23T09:31:04.945Z,27.20
2023-01-23T09:33:32.592Z,32.30
2023-01-23T09:35:59.829Z,27.75
2023-01-23T09:38:27.232Z,30.88
2023-01-23T09:40:55.674Z,27.98
2023-01-23T09:43:25.854Z,27.58
2023-01-23T09:46:11.248Z,26.35
2023-01-23T09:48:48.597Z,29.08
2023-01-23T09:51:23.824Z,26.38
2023-01-23T09:53:51.088Z,29.95
2023-01-23T09:56:24.095Z,27.42
2023-01-23T09:58:57.269Z,26.17
2023-01-23T10:01:25.237Z,25.67
2023-01-23T10:03:52.407Z,23.63
2023-01-23T10:06:26.200Z,26.05
2023-01-23T10:09:12.142Z,25.05
2023-01-23T10:11:58.201Z,23.17
2023-01-23T10:14:46.748Z,22.73
2023-01-23T10:17:26.797Z,25.73
2023-01-23T10:20:03.325Z,26.85
2023-01-23T10:22:30.584Z,25.92
2023-01-23T10:24:58.053Z,25.42
2023-01-23T10:27:31.530Z,22.38
2023-01-23T10:30:00.228Z,24.10
2023-01-23T10:32:28.595Z,26.23
2023-01-23T10:34:59.689Z,24.75
2023-01-23T10:37:32.942Z,25.77
2023-01-23T10:40:13.164Z,23.58
2023-01-23T10:42:40.407Z,26.85
2023-01-23T10:45:07.908Z,24.77
2023-01-23T10:47:43.109Z,23.57
2023-01-23T10:50:10.770Z,25.63
2023-01-23T10:52:47.031Z,26.20
2023-01-23T10:55:20.768Z,21.58
2023-01-23T10:57:49.309Z,26.48
2023-01-23T11:00:26.132Z,24.58
2023-01-23T11:02:53.405Z,24.73
2023-01-23T11:05:33.691Z,23.48
2023-01-23T11:08:04.936Z,22.77
2023-01-23T11:10:32.125Z,29.13
2023-01-23T11:13:00.856Z,26.50
2023-01-23T11:15:29.679Z,26.10
2023-01-23T11:17:57.451Z,30.33
2023-01-23T11:20:29.033Z,31.55
2023-01-23T11:23:11.513Z,28.42
2023-01-23T11:25:44.211Z,26.17
2023-01-23T11:28:17.563Z,35.00
2023-01-23T11:31:13.804Z,32.25
2023-01-23T11:33:57.766Z,33.50
2023-01-23T11:36:37.503Z,33.38
2023-01-23T11:39:08.087Z,35.77
2023-01-23T11:41:35.633Z,37.38
2023-01-23T11:44:04.748Z,35.45
2023-01-23T11:46:36.141Z,37.25
2023-01-23T11:49:06.424Z,37.95
2023-01-23T11:51:36.839Z,36.70
2023-01-23T11:54:07.473Z,39.75
2023-01-23T11:56:40.875Z,42.85
2023-01-23T11:59:26.268Z,41.90
2023-01-23T12:02:03.376Z,37.13
2023-01-23T12:04:36.889Z,40.80
2023-01-23T12:07:07.678Z,40.03
2023-01-23T12:09:55.165Z,37.10
2023-01-23T12:12:22.333Z,38.63
2023-01-23T12:14:55.637Z,36.97
2023-01-23T12:17:33.496Z,44.47
2023-01-23T12:20:19.995Z,38.22
2023-01-23T12:23:06.873Z,37.40
2023-01-23T12:25:37.065Z,36.55
2023-01-23T12:28:13.420Z,32.17
2023-01-23T12:30:43.502Z,36.22
2023-01-23T12:33:22.203Z,35.72
2023-01-23T12:35:49.458Z,31.85
2023-01-23T12:38:22.692Z,32.80
2023-01-23T12:40:52.727Z,28.10
2023-01-23T12:43:39.401Z,30.92
2023-01-23T12:46:11.265Z,28.90
2023-01-23T12:48:44.044Z,30.65
2023-01-23T12:51:13.727Z,28.00
2023-01-23T12:53:41.046Z,29.02
2023-01-23T12:56:12.157Z,29.70
2023-01-23T12:58:41.558Z,31.60
2023-01-23T13:01:13.931Z,27.40
2023-01-23T13:03:50.476Z,25.70
2023-01-23T13:06:18.501Z,28.58
2023-01-23T13:09:12.016Z,22.70
2023-01-23T13:11:47.747Z,24.58
2023-01-23T13:14:31.492Z,26.10
2023-01-23T13:17:04.773Z,26.40
2023-01-23T13:19:51.299Z,23.13
2023-01-23T13:22:26.957Z,28.13
2023-01-23T13:25:14.477Z,25.80
2023-01-23T13:27:45.096Z,26.30
2023-01-23T13:30:31.800Z,29.17
2023-01-23T13:33:20.951Z,25.33
2023-01-23T13:35:49.393Z,24.48
2023-01-23T13:38:22.728Z,27.83
2023-01-23T13:41:04.753Z,29.38
2023-01-23T13:43:50.556Z,22.83
2023-01-23T13:46:26.955Z,31.92
2023-01-23T14:22:46.147Z,30.35
2023-01-23T14:25:22.684Z,30.88
2023-01-23T14:27:54.321Z,32.37
2023-01-23T14:30:27.468Z,28.13
2023-01-23T14:32:54.826Z,30.92
2023-01-23T14:35:29.018Z,28.95
2023-01-23T14:37:57.394Z,26.90
2023-01-23T14:40:28.054Z,30.23
2023-01-23T14:42:58.616Z,33.25
2023-01-23T14:45:25.797Z,31.58
2023-01-23T14:48:04.636Z,32.88
2023-01-23T14:50:33.158Z,30.95
2023-01-23T14:53:05.090Z,35.30
2023-01-23T14:55:32.520Z,31.58
2023-01-23T14:58:00.287Z,34.65
2023-01-23T15:00:27.757Z,33.95
2023-01-23T15:02:56.291Z,27.67
2023-01-23T15:05:23.994Z,29.02
2023-01-23T15:07:57.449Z,26.40
2023-01-23T15:10:25.729Z,29.08
2023-01-23T15:13:01.497Z,26.52
2023-01-23T15:15:28.965Z,25.00
2023-01-23T15:17:56.511Z,34.42
2023-01-23T15:20:32.948Z,27.58
2023-01-23T15:23:01.085Z,27.38
2023-01-23T15:25:32.715Z,31.13
2023-01-23T15:27:59.948Z,30.23
2023-01-23T15:30:30.324Z,33.28
2023-01-23T15:32:58.132Z,29.08
2023-01-23T15:35:25.287Z,31.98
2023-01-23T15:37:55.937Z,29.48
2023-01-23T15:40:25.845Z,33.67
2023-01-23T15:43:11.772Z,26.92
2023-01-23T15:45:38.950Z,35.40
2023-01-23T15:48:06.485Z,26.65
2023-01-23T15:50:33.650Z,26.45
2023-01-23T15:53:00.796Z,26.58
2023-01-23T15:55:27.959Z,25.70
2023-01-23T15:57:55.460Z,32.92
2023-01-23T16:00:29.469Z,29.60
2023-01-23T16:02:57.937Z,28.55
2023-01-23T16:05:32.323Z,28.30
2023-01-23T16:08:03.404Z,30.58
2023-01-23T16:10:31.810Z,28.85
2023-01-23T16:12:59.033Z,27.60
2023-01-23T16:15:27.162Z,29.60
2023-01-23T16:17:54.458Z,30.40
2023-01-23T16:20:22.463Z,35.55
2023-01-23T16:22:53.294Z,34.85
2023-01-23T16:25:25.007Z,28.40
2023-01-23T16:27:58.756Z,31.45
2023-01-23T16:30:25.989Z,39.60
2023-01-23T16:32:53.455Z,42.13
2023-01-23T16:35:20.724Z,40.85
2023-01-23T16:37:49.271Z,31.55
2023-01-23T16:40:23.421Z,32.95
2023-01-23T16:42:50.943Z,32.83
2023-01-23T16:45:19.496Z,29.23
2023-01-23T16:47:46.823Z,27.88
2023-01-23T16:50:14.689Z,37.97
2023-01-23T16:52:41.984Z,29.13
2023-01-23T16:55:26.385Z,30.83
2023-01-23T16:57:54.431Z,31.10
2023-01-23T17:00:34.041Z,34.88
2023-01-23T17:03:02.114Z,31.50
2023-01-23T17:05:29.292Z,30.33
2023-01-23T17:07:56.459Z,32.80
2023-01-23T17:10:27.725Z,34.10
2023-01-23T17:12:57.335Z,33.40
2023-01-23T17:15:25.321Z,34.63
2023-01-23T17:17:53.393Z,36.88
2023-01-23T17:20:20.690Z,37.88
2023-01-23T17:22:47.995Z,31.50
2023-01-23T17:25:36.072Z,28.17
2023-01-23T17:28:12.888Z,26.65
2023-01-23T17:30:40.597Z,33.22
2023-01-23T17:33:09.671Z,31.15
2023-01-23T17:35:37.224Z,25.30
2023-01-23T17:38:04.401Z,32.58
2023-01-23T17:40:31.946Z,37.03
2023-01-23T17:42:59.240Z,33.33
2023-01-23T17:45:27.081Z,33.53
2023-01-23T17:47:54.658Z,38.65
2023-01-23T17:50:22.764Z,37.70
2023-01-23T17:52:50.221Z,34.83
2023-01-23T17:55:18.435Z,36.08
2023-01-23T17:57:45.631Z,38.73
2023-01-23T18:00:13.532Z,41.92
2023-01-23T18:02:40.961Z,40.97
2023-01-23T18:05:11.073Z,39.30
2023-01-23T18:07:52.377Z,37.80
2023-01-23T18:10:21.236Z,33.03
2023-01-23T18:12:48.460Z,40.03
2023-01-23T18:15:42.086Z,38.65
2023-01-23T18:18:13.271Z,35.70
2023-01-23T18:20:40.529Z,43.13
2023-01-23T18:23:08.699Z,45.50
2023-01-23T18:25:35.955Z,33.05
2023-01-23T18:28:04.181Z,35.53
2023-01-23T18:30:34.588Z,36.17
2023-01-23T18:33:01.763Z,29.30
2023-01-23T18:35:44.014Z,32.10
2023-01-23T18:38:20.210Z,35.55
2023-01-23T18:40:58.617Z,32.00
2023-01-23T18:43:35.942Z,30.53
2023-01-23T18:46:03.258Z,26.38
2023-01-23T18:48:30.574Z,28.58
2023-01-23T18:51:00.690Z,32.20
2023-01-23T18:53:36.880Z,32.10
2023-01-23T18:56:04.040Z,28.30
2023-01-23T18:58:43.418Z,26.00
2023-01-23T19:01:22.800Z,21.75
2023-01-23T19:03:50.373Z,26.83
2023-01-23T19:06:22.256Z,23.08
2023-01-23T19:08:50.456Z,18.33
2023-01-23T19:11:24.750Z,18.05
2023-01-23T19:13:59.395Z,12.07
2023-01-23T19:16:31.009Z,13.75
2023-01-23T19:19:14.267Z,13.07
2023-01-23T19:21:42.618Z,12.57
2023-01-23T19:24:11.136Z,13.77
2023-01-23T19:26:39.273Z,12.95
2023-01-23T19:29:20.515Z,13.80
2023-01-23T19:32:04.799Z,13.85
2023-01-23T19:34:32.863Z,11.93
2023-01-23T19:37:00.097Z,12.85
2023-01-23T19:39:27.267Z,15.57
2023-01-23T19:41:54.460Z,15.98
2023-01-23T19:44:24.940Z,15.77
2023-01-23T19:46:52.359Z,13.00
2023-01-23T19:49:19.772Z,13.95
2023-01-23T19:51:47.097Z,13.27
2023-01-23T19:54:14.778Z,12.13
2023-01-23T19:56:42.445Z,14.18
2023-01-23T19:59:09.816Z,11.70
2023-01-23T20:01:48.481Z,15.38
2023-01-23T20:04:16.671Z,14.02
2023-01-23T20:06:45.448Z,13.75
2023-01-23T20:09:14.616Z,11.75
2023-01-23T20:11:42.230Z,9.32
2023-01-23T20:14:09.409Z,9.60
2023-01-23T20:16:40.258Z,12.60
2023-01-23T20:19:07.732Z,11.57
2023-01-23T20:21:34.956Z,13.25
2023-01-23T20:24:02.183Z,10.95
2023-01-23T20:26:29.374Z,10.57
2023-01-23T20:28:58.065Z,12.45
2023-01-23T20:31:25.345Z,11.13
2023-01-23T20:33:52.571Z,10.55
2023-01-23T20:36:19.775Z,12.80
2023-01-23T20:38:46.927Z,11.50
2023-01-23T20:41:15.047Z,11.07
2023-01-23T20:43:45.398Z,11.20
2023-01-23T20:46:12.929Z,11.63
2023-01-23T20:48:41.636Z,12.18
2023-01-23T20:51:09.793Z,13.82
2023-01-23T20:53:39.518Z,11.52
2023-01-23T20:56:10.835Z,12.50
2023-01-23T20:58:58.124Z,13.50
2023-01-23T21:01:26.194Z,12.30
2023-01-23T21:03:53.468Z,13.95
2023-01-23T21:06:20.745Z,10.02
2023-01-23T21:08:48.058Z,9.50
2023-01-23T21:11:16.671Z,11.90
2023-01-23T21:13:43.882Z,10.82
2023-01-23T21:16:14.685Z,8.77
2023-01-23T21:18:44.702Z,9.70
2023-01-23T21:21:13.293Z,11.60
2023-01-23T21:23:40.514Z,10.88
2023-01-23T21:26:07.702Z,10.23
2023-01-23T21:28:36.434Z,9.13
2023-01-23T21:31:13.580Z,9.68
2023-01-23T21:33:43.977Z,11.48
2023-01-23T21:36:11.870Z,12.65
2023-01-23T21:38:39.180Z,11.50
2023-01-23T21:41:06.443Z,10.55
2023-01-23T21:43:34.079Z,13.77
2023-01-23T21:46:01.287Z,13.35
2023-01-23T21:48:31.913Z,15.35
2023-01-23T21:51:06.389Z,14.25
2023-01-23T21:53:33.662Z,12.55
2023-01-23T21:56:00.864Z,11.57
2023-01-23T21:58:28.057Z,12.00
2023-01-23T22:01:17.342Z,13.48
2023-01-23T22:03:44.568Z,10.68
2023-01-23T22:06:11.708Z,12.45
2023-01-23T22:08:38.983Z,12.25
2023-01-23T22:11:06.555Z,10.85
2023-01-23T22:13:33.723Z,12.50
2023-01-23T22:16:01.135Z,11.38
2023-01-23T22:18:28.651Z,12.53
2023-01-23T22:20:56.357Z,12.07
2023-01-23T22:23:23.946Z,12.55
2023-01-23T22:25:52.117Z,12.47
2023-01-23T22:28:19.403Z,13.52
2023-01-23T22:30:46.580Z,12.98
2023-01-23T22:33:13.802Z,14.48
2023-01-23T22:35:41.103Z,14.52
2023-01-23T22:38:08.592Z,14.68
2023-01-23T22:40:35.926Z,14.70
2023-01-23T22:43:03.183Z,14.02
2023-01-23T22:45:30.481Z,14.82
2023-01-23T22:47:57.667Z,15.18
2023-01-23T22:50:24.886Z,15.10
2023-01-23T22:52:52.553Z,17.17
2023-01-23T22:55:19.991Z,14.73
2023-01-23T22:57:47.452Z,15.38
2023-01-23T23:00:15.651Z,14.68
2023-01-23T23:02:42.913Z,17.55
2023-01-23T23:05:10.316Z,15.50
2023-01-23T23:07:38.597Z,14.50
2023-01-23T23:10:08.737Z,15.30
2023-01-23T23:12:35.884Z,13.65
2023-01-23T23:15:03.237Z,15.27
2023-01-23T23:17:30.563Z,13.13
2023-01-23T23:19:57.831Z,15.85
2023-01-23T23:22:25.154Z,13.90
2023-01-23T23:24:52.339Z,15.73
2023-01-23T23:27:19.550Z,14.60
2023-01-23T23:29:46.701Z,15.82
2023-01-23T23:32:13.928Z,13.73
2023-01-23T23:34:42.163Z,15.77
2023-01-23T23:37:09.423Z,15.02
2023-01-23T23:39:36.639Z,15.90
2023-01-23T23:42:03.775Z,14.85
2023-01-23T23:44:30.946Z,13.68
2023-01-23T23:46:58.164Z,15.52
2023-01-23T23:49:26.452Z,17.80
2023-01-23T23:51:53.657Z,17.17
2023-01-23T23:54:20.844Z,15.95
2023-01-23T23:56:48.385Z,14.20
2023-01-23T23:59:18.692Z,18.08
